Time;durP1;ratioP1;P1;durP2;ratioP2;P2;SDS_P1;SDS_P2;PMS_P1;PMS_P2;Temp;Humidity;BMP_temperature;BMP_pressure;BME280_temperature;BME280_humidity;BME280_pressure;Samples;Min_cycle;Max_cycle;Signal;HPM_P1;HPM_P2
2023/08/30 00:01:05;;;;;;;9.10;3.33;;;;;;;;;;5011522;28;20022;-67
2023/08/30 00:03:31;;;;;;;7.15;3.70;;;;;;;;;;5009747;28;20232;-68
2023/08/30 00:06:01;;;;;;;7.25;3.00;;;;;;;;;;5011672;28;20017;-68
2023/08/30 00:08:27;;;;;;;8.45;3.63;;;;;;;;;;5011970;28;20022;-68
2023/08/30 00:10:52;;;;;;;4.80;2.95;;;;;;;;;;5011020;28;20083;-67
2023/08/30 00:13:17;;;;;;;7.43;3.33;;;;;;;;;;5010994;28;20034;-71
2023/08/30 00:15:42;;;;;;;8.77;2.70;;;;;;;;;;5010643;28;20065;-71
2023/08/30 00:18:07;;;;;;;8.10;2.83;;;;;;;;;;5009920;28;20053;-68
2023/08/30 00:20:33;;;;;;;4.13;2.33;;;;;;;;;;5007710;28;20053;-68
2023/08/30 00:22:59;;;;;;;6.85;2.80;;;;;;;;;;5011431;28;20087;-66
2023/08/30 00:25:24;;;;;;;7.00;2.53;;;;;;;;;;5010326;28;20022;-65
2023/08/30 00:27:49;;;;;;;7.18;2.58;;;;;;;;;;5011284;28;20014;-67
2023/08/30 00:30:14;;;;;;;4.50;2.30;;;;;;;;;;5010627;28;20021;-65
2023/08/30 00:32:40;;;;;;;7.88;2.65;;;;;;;;;;5010205;28;20022;-66
2023/08/30 00:35:05;;;;;;;6.03;2.60;;;;;;;;;;5010136;28;20535;-69
2023/08/30 00:37:30;;;;;;;7.75;2.88;;;;;;;;;;5011241;28;20435;-67
2023/08/30 00:39:56;;;;;;;8.70;2.17;;;;;;;;;;5010467;28;20034;-68
2023/08/30 00:42:21;;;;;;;9.35;2.45;;;;;;;;;;5012086;28;20034;-68
2023/08/30 00:44:46;;;;;;;5.93;2.10;;;;;;;;;;5009871;28;20028;-68
2023/08/30 00:47:11;;;;;;;8.45;2.72;;;;;;;;;;5009971;28;20028;-68
2023/08/30 00:49:37;;;;;;;5.43;2.50;;;;;;;;;;5009855;28;20478;-69
2023/08/30 00:52:04;;;;;;;5.78;2.47;;;;;;;;;;5011029;28;20022;-72
2023/08/30 00:54:30;;;;;;;4.93;2.80;;;;;;;;;;5009563;28;20057;-69
2023/08/30 00:56:56;;;;;;;7.30;2.20;;;;;;;;;;5009603;28;20034;-69
2023/08/30 00:59:21;;;;;;;5.07;2.58;;;;;;;;;;5010376;28;20105;-64
2023/08/30 01:01:48;;;;;;;7.55;2.80;;;;;;;;;;5009901;28;20105;-65
2023/08/30 01:04:14;;;;;;;6.18;3.08;;;;;;;;;;5003580;28;20029;-67
2023/08/30 01:06:39;;;;;;;15.63;2.60;;;;;;;;;;5003134;28;20395;-70
2023/08/30 01:09:04;;;;;;;6.82;2.53;;;;;;;;;;5010223;28;20061;-68
2023/08/30 01:11:29;;;;;;;8.95;2.85;;;;;;;;;;5010109;28;20029;-69
2023/08/30 01:14:08;;;;;;;5.30;2.50;;;;;;;;;;5009222;28;20033;-69
2023/08/30 01:16:34;;;;;;;12.65;2.53;;;;;;;;;;5008446;28;20018;-70
2023/08/30 01:19:00;;;;;;;4.72;2.47;;;;;;;;;;5008668;28;20034;-68
2023/08/30 01:21:29;;;;;;;8.02;2.65;;;;;;;;;;5006788;28;20093;-67
2023/08/30 01:24:06;;;;;;;4.90;2.40;;;;;;;;;;5008954;28;20428;-66
2023/08/30 01:26:43;;;;;;;4.80;2.65;;;;;;;;;;5009211;28;20022;-70
2023/08/30 01:29:10;;;;;;;6.03;2.35;;;;;;;;;;5009432;28;20100;-70
2023/08/30 01:31:37;;;;;;;6.28;2.42;;;;;;;;;;5006651;28;20105;-69
2023/08/30 01:34:03;;;;;;;4.72;2.28;;;;;;;;;;5008120;28;20037;-65
2023/08/30 01:36:29;;;;;;;7.43;2.95;;;;;;;;;;5009917;28;20029;-69
2023/08/30 01:38:55;;;;;;;4.80;2.45;;;;;;;;;;5010048;28;20040;-68
2023/08/30 01:41:23;;;;;;;10.35;3.47;;;;;;;;;;5009360;28;20083;-69
2023/08/30 01:43:48;;;;;;;10.77;3.08;;;;;;;;;;5009292;28;20046;-66
2023/08/30 01:46:14;;;;;;;12.80;3.60;;;;;;;;;;5007845;28;20018;-66
2023/08/30 01:48:40;;;;;;;8.70;3.85;;;;;;;;;;5008451;28;20040;-67
2023/08/30 01:51:06;;;;;;;7.57;3.97;;;;;;;;;;5010116;28;20021;-68
2023/08/30 01:53:31;;;;;;;6.80;4.00;;;;;;;;;;5009240;28;20038;-66
2023/08/30 01:55:57;;;;;;;9.23;3.55;;;;;;;;;;5008960;28;20025;-70
2023/08/30 01:58:22;;;;;;;6.78;3.90;;;;;;;;;;5005203;28;20033;-64
2023/08/30 02:00:47;;;;;;;6.30;3.67;;;;;;;;;;5007479;28;20439;-64
2023/08/30 02:03:13;;;;;;;5.53;3.35;;;;;;;;;;5007963;28;20029;-68
2023/08/30 02:05:48;;;;;;;6.82;3.38;;;;;;;;;;5008660;28;20102;-68
2023/08/30 02:08:17;;;;;;;6.40;3.13;;;;;;;;;;5009539;28;20030;-67
2023/08/30 02:10:48;;;;;;;5.00;2.80;;;;;;;;;;5009234;28;20166;-68
2023/08/30 02:13:14;;;;;;;6.22;3.25;;;;;;;;;;5009434;28;20139;-64
2023/08/30 02:15:41;;;;;;;5.75;3.03;;;;;;;;;;5009016;28;20045;-66
2023/08/30 02:18:07;;;;;;;6.07;3.00;;;;;;;;;;5008035;28;20111;-69
2023/08/30 02:20:32;;;;;;;6.38;3.60;;;;;;;;;;5005706;28;20053;-68
2023/08/30 02:22:58;;;;;;;6.40;2.83;;;;;;;;;;5009304;28;20383;-67
2023/08/30 02:25:24;;;;;;;10.13;3.38;;;;;;;;;;5008081;28;20100;-65
2023/08/30 02:27:49;;;;;;;6.18;3.17;;;;;;;;;;5009325;28;20364;-68
2023/08/30 02:30:14;;;;;;;5.72;3.22;;;;;;;;;;5009474;28;20017;-68
2023/08/30 02:32:39;;;;;;;7.30;3.60;;;;;;;;;;5008131;28;20024;-67
2023/08/30 02:35:05;;;;;;;8.45;3.30;;;;;;;;;;5008581;28;20496;-71
2023/08/30 02:37:30;;;;;;;13.35;3.60;;;;;;;;;;5009957;28;20024;-69
2023/08/30 02:39:55;;;;;;;6.45;3.53;;;;;;;;;;5010368;28;20140;-70
2023/08/30 02:42:20;;;;;;;7.45;3.35;;;;;;;;;;5011754;28;20033;-68
2023/08/30 02:44:46;;;;;;;12.30;4.13;;;;;;;;;;5009938;28;20033;-68
2023/08/30 02:47:11;;;;;;;6.78;4.30;;;;;;;;;;5008495;28;20110;-69
2023/08/30 02:49:36;;;;;;;14.30;4.22;;;;;;;;;;5005417;28;20030;-68
2023/08/30 02:52:01;;;;;;;7.30;3.85;;;;;;;;;;5009451;28;20022;-69
2023/08/30 02:54:27;;;;;;;7.85;4.22;;;;;;;;;;5008328;28;20109;-68
2023/08/30 02:56:52;;;;;;;9.00;4.30;;;;;;;;;;5007906;28;20045;-65
2023/08/30 02:59:17;;;;;;;8.10;4.00;;;;;;;;;;5008871;28;20014;-69
2023/08/30 03:01:43;;;;;;;7.15;4.25;;;;;;;;;;5009137;28;20018;-67
2023/08/30 03:04:08;;;;;;;9.77;4.47;;;;;;;;;;5005931;28;20022;-66
2023/08/30 03:06:33;;;;;;;7.15;4.22;;;;;;;;;;5008969;28;20022;-68
2023/08/30 03:08:59;;;;;;;10.65;4.97;;;;;;;;;;5008915;28;20026;-68
2023/08/30 03:11:24;;;;;;;7.97;4.28;;;;;;;;;;5008442;28;20034;-67
2023/08/30 03:13:50;;;;;;;12.02;4.95;;;;;;;;;;5008263;28;20046;-68
2023/08/30 03:16:16;;;;;;;12.15;4.38;;;;;;;;;;5008731;28;20049;-65
2023/08/30 03:18:42;;;;;;;9.68;4.50;;;;;;;;;;5007683;28;20123;-64
2023/08/30 03:21:07;;;;;;;7.18;4.30;;;;;;;;;;5010711;28;20080;-65
2023/08/30 03:23:33;;;;;;;13.98;4.75;;;;;;;;;;5011432;28;20010;-67
2023/08/30 03:25:58;;;;;;;9.10;4.32;;;;;;;;;;5012450;28;20029;-68
2023/08/30 03:28:24;;;;;;;7.70;4.30;;;;;;;;;;5012579;28;20036;-68
2023/08/30 03:30:49;;;;;;;8.07;4.45;;;;;;;;;;5012494;28;20018;-67
2023/08/30 03:33:14;;;;;;;8.45;4.20;;;;;;;;;;5010912;28;20018;-67
2023/08/30 03:35:42;;;;;;;6.60;3.47;;;;;;;;;;5011582;28;20502;-69
2023/08/30 03:38:07;;;;;;;7.53;3.97;;;;;;;;;;5008856;28;20076;-69
2023/08/30 03:40:33;;;;;;;10.05;3.78;;;;;;;;;;5012280;28;20034;-69
2023/08/30 03:42:58;;;;;;;5.72;3.47;;;;;;;;;;5009705;28;20079;-72
2023/08/30 03:45:23;;;;;;;13.02;4.30;;;;;;;;;;5005611;28;20491;-67
2023/08/30 03:47:48;;;;;;;11.88;4.53;;;;;;;;;;5009044;28;20017;-68
2023/08/30 03:50:14;;;;;;;6.68;4.10;;;;;;;;;;5010697;28;20014;-68
2023/08/30 03:52:39;;;;;;;15.93;4.25;;;;;;;;;;5011472;28;20033;-63
2023/08/30 03:55:05;;;;;;;6.65;3.95;;;;;;;;;;5009752;28;20051;-68
2023/08/30 03:57:30;;;;;;;7.43;3.80;;;;;;;;;;5008008;28;20017;-63
2023/08/30 03:59:55;;;;;;;12.05;4.32;;;;;;;;;;5011565;28;20100;-64
2023/08/30 04:02:20;;;;;;;10.20;4.20;;;;;;;;;;5006091;28;20014;-68
2023/08/30 04:04:49;;;;;;;10.77;3.95;;;;;;;;;;5008345;28;20149;-63
2023/08/30 04:07:14;;;;;;;12.55;4.00;;;;;;;;;;5008838;28;20104;-68
2023/08/30 04:09:39;;;;;;;12.43;4.30;;;;;;;;;;5012775;28;20120;-64
2023/08/30 04:12:05;;;;;;;6.50;3.67;;;;;;;;;;5011590;28;20028;-66
2023/08/30 04:14:30;;;;;;;8.65;4.07;;;;;;;;;;5011403;28;20018;-68
2023/08/30 04:16:56;;;;;;;9.65;4.57;;;;;;;;;;5011364;28;20030;-71
2023/08/30 04:19:21;;;;;;;10.18;4.68;;;;;;;;;;5008477;28;20076;-66
2023/08/30 04:21:46;;;;;;;11.32;5.07;;;;;;;;;;5004840;28;20088;-68
2023/08/30 04:24:11;;;;;;;11.52;5.28;;;;;;;;;;5010445;28;20060;-68
2023/08/30 04:26:37;;;;;;;10.57;6.50;;;;;;;;;;5011169;28;20056;-67
2023/08/30 04:29:03;;;;;;;10.07;5.28;;;;;;;;;;5009905;28;20014;-70
2023/08/30 04:31:28;;;;;;;8.95;5.18;;;;;;;;;;5006175;28;20468;-68
2023/08/30 04:33:55;;;;;;;7.72;4.70;;;;;;;;;;5005749;28;20065;-69
2023/08/30 04:36:20;;;;;;;12.68;5.28;;;;;;;;;;5014752;28;20113;-68
2023/08/30 04:38:45;;;;;;;7.15;4.70;;;;;;;;;;5011072;28;20113;-68
2023/08/30 04:41:11;;;;;;;9.13;5.20;;;;;;;;;;5009920;28;20095;-68
2023/08/30 04:43:36;;;;;;;11.73;4.85;;;;;;;;;;5010057;28;20052;-68
2023/08/30 04:46:02;;;;;;;9.82;4.90;;;;;;;;;;5005599;28;20029;-65
2023/08/30 04:48:27;;;;;;;8.15;5.32;;;;;;;;;;5007195;28;20736;-64
2023/08/30 04:51:00;;;;;;;8.98;5.90;;;;;;;;;;5008183;28;20028;-71
2023/08/30 04:53:25;;;;;;;8.68;5.32;;;;;;;;;;5005253;28;20519;-67
2023/08/30 04:55:50;;;;;;;10.98;5.35;;;;;;;;;;5004885;28;20028;-69
2023/08/30 04:58:16;;;;;;;8.88;5.70;;;;;;;;;;5007838;28;20034;-66
2023/08/30 05:00:41;;;;;;;9.88;6.35;;;;;;;;;;5010129;28;20014;-66
2023/08/30 05:03:06;;;;;;;10.38;5.97;;;;;;;;;;5007850;28;20083;-68
2023/08/30 05:05:32;;;;;;;11.07;4.75;;;;;;;;;;5009272;28;20014;-69
2023/08/30 05:07:57;;;;;;;7.88;4.78;;;;;;;;;;5008708;28;20018;-68
2023/08/30 05:10:22;;;;;;;16.45;5.05;;;;;;;;;;5004836;28;20014;-68
2023/08/30 05:12:51;;;;;;;8.55;5.55;;;;;;;;;;5009663;28;20491;-67
2023/08/30 05:15:17;;;;;;;10.10;4.35;;;;;;;;;;5009545;28;20014;-67
2023/08/30 05:17:42;;;;;;;12.35;5.20;;;;;;;;;;5009151;28;20382;-70
2023/08/30 05:20:08;;;;;;;10.18;4.63;;;;;;;;;;5009677;28;20537;-70
2023/08/30 05:22:33;;;;;;;9.20;4.78;;;;;;;;;;5009678;28;20164;-69
2023/08/30 05:24:58;;;;;;;6.97;4.45;;;;;;;;;;5009948;28;20025;-69
2023/08/30 05:27:23;;;;;;;15.40;5.97;;;;;;;;;;5009260;28;20113;-66
2023/08/30 05:29:49;;;;;;;7.90;4.13;;;;;;;;;;5010266;28;20468;-68
2023/08/30 05:32:14;;;;;;;14.55;5.07;;;;;;;;;;5008610;28;20629;-67
2023/08/30 05:34:39;;;;;;;7.53;4.20;;;;;;;;;;5009198;28;20064;-69
2023/08/30 05:37:04;;;;;;;7.95;4.53;;;;;;;;;;5009796;28;20058;-68
2023/08/30 05:39:30;;;;;;;7.75;4.47;;;;;;;;;;5010466;28;20581;-68
2023/08/30 05:41:55;;;;;;;19.02;5.05;;;;;;;;;;5009535;28;20032;-67
2023/08/30 05:44:20;;;;;;;13.30;4.32;;;;;;;;;;5008597;28;20503;-67
2023/08/30 05:46:45;;;;;;;7.22;4.00;;;;;;;;;;5009927;28;20014;-70
2023/08/30 05:49:11;;;;;;;7.25;4.47;;;;;;;;;;5008179;28;20014;-68
2023/08/30 05:51:36;;;;;;;9.75;4.20;;;;;;;;;;5005007;28;20117;-66
2023/08/30 05:54:02;;;;;;;7.80;4.75;;;;;;;;;;5001962;28;20029;-67
2023/08/30 05:56:27;;;;;;;8.52;4.78;;;;;;;;;;5009104;28;20056;-67
2023/08/30 05:58:52;;;;;;;9.43;4.95;;;;;;;;;;5009376;28;20033;-67
2023/08/30 06:01:18;;;;;;;14.98;5.15;;;;;;;;;;5009539;28;20483;-68
2023/08/30 06:03:45;;;;;;;12.40;4.97;;;;;;;;;;5008555;28;20013;-68
2023/08/30 06:06:10;;;;;;;7.93;4.93;;;;;;;;;;5009348;28;20024;-69
2023/08/30 06:08:36;;;;;;;7.43;4.32;;;;;;;;;;5009486;28;20371;-64
2023/08/30 06:11:01;;;;;;;8.57;4.70;;;;;;;;;;5009967;28;20044;-68
2023/08/30 06:13:26;;;;;;;14.05;5.65;;;;;;;;;;5008684;28;20052;-68
2023/08/30 06:15:52;;;;;;;7.18;4.70;;;;;;;;;;5009591;28;20588;-65
2023/08/30 06:18:18;;;;;;;15.60;5.63;;;;;;;;;;5008579;28;20029;-67
2023/08/30 06:20:43;;;;;;;9.38;4.85;;;;;;;;;;5008253;28;20033;-67
2023/08/30 06:23:08;;;;;;;7.35;4.40;;;;;;;;;;5008027;28;20033;-65
2023/08/30 06:25:33;;;;;;;8.77;4.78;;;;;;;;;;5008281;28;20018;-67
2023/08/30 06:27:59;;;;;;;19.35;5.85;;;;;;;;;;5008516;28;20050;-66
2023/08/30 06:30:29;;;;;;;8.50;4.97;;;;;;;;;;5009510;28;20010;-68
2023/08/30 06:32:54;;;;;;;9.45;5.18;;;;;;;;;;5007832;28;20068;-68
2023/08/30 06:35:19;;;;;;;13.73;4.85;;;;;;;;;;5006747;28;20415;-71
2023/08/30 06:37:45;;;;;;;8.82;5.32;;;;;;;;;;5008434;28;20097;-67
2023/08/30 06:40:11;;;;;;;8.40;5.05;;;;;;;;;;5009312;28;20028;-66
2023/08/30 06:42:36;;;;;;;9.98;4.90;;;;;;;;;;5020529;23;20093;-67
2023/08/30 06:45:02;;;;;;;9.68;5.03;;;;;;;;;;5006743;28;20084;-67
2023/08/30 06:47:27;;;;;;;10.43;5.25;;;;;;;;;;5006872;28;20070;-69
2023/08/30 06:49:53;;;;;;;9.95;5.85;;;;;;;;;;5005874;28;20383;-67
2023/08/30 06:52:18;;;;;;;9.48;4.95;;;;;;;;;;5007447;28;20021;-68
2023/08/30 06:54:43;;;;;;;13.05;5.75;;;;;;;;;;5003349;28;20018;-68
2023/08/30 06:57:08;;;;;;;9.80;5.10;;;;;;;;;;5011123;28;20072;-65
2023/08/30 06:59:34;;;;;;;12.20;4.97;;;;;;;;;;5011082;28;20030;-68
2023/08/30 07:01:59;;;;;;;8.77;4.72;;;;;;;;;;5010165;28;20144;-69
2023/08/30 07:04:24;;;;;;;13.20;6.32;;;;;;;;;;5009396;28;20088;-68
2023/08/30 07:06:50;;;;;;;16.73;5.32;;;;;;;;;;5008757;28;20067;-66
2023/08/30 07:09:16;;;;;;;9.70;5.65;;;;;;;;;;5011074;28;20034;-68
2023/08/30 07:11:44;;;;;;;9.52;4.60;;;;;;;;;;5011727;28;20138;-67
2023/08/30 07:14:09;;;;;;;9.32;5.40;;;;;;;;;;5009953;28;20033;-69
2023/08/30 07:16:34;;;;;;;9.05;4.50;;;;;;;;;;5010878;28;20045;-68
2023/08/30 07:19:01;;;;;;;7.50;4.70;;;;;;;;;;5010410;28;20022;-64
2023/08/30 07:21:26;;;;;;;9.45;3.80;;;;;;;;;;5010036;28;20072;-66
2023/08/30 07:23:51;;;;;;;10.73;3.90;;;;;;;;;;5009450;28;20022;-67
2023/08/30 07:26:17;;;;;;;6.68;3.55;;;;;;;;;;5010929;28;20021;-68
2023/08/30 07:28:42;;;;;;;8.43;4.38;;;;;;;;;;5008830;28;20017;-69
2023/08/30 07:31:07;;;;;;;7.45;3.97;;;;;;;;;;5004782;28;20022;-69
2023/08/30 07:33:32;;;;;;;9.25;3.78;;;;;;;;;;5009401;28;20380;-67
2023/08/30 07:35:58;;;;;;;10.20;4.30;;;;;;;;;;5009492;28;20026;-67
2023/08/30 07:38:23;;;;;;;7.50;4.43;;;;;;;;;;5003816;28;20022;-67
2023/08/30 07:40:48;;;;;;;7.68;4.85;;;;;;;;;;5001944;28;20416;-68
2023/08/30 07:43:13;;;;;;;10.68;4.80;;;;;;;;;;5010400;28;20474;-68
2023/08/30 07:45:39;;;;;;;11.85;4.53;;;;;;;;;;5008518;28;20409;-66
2023/08/30 07:48:04;;;;;;;9.80;4.63;;;;;;;;;;5008443;28;20018;-68
2023/08/30 07:50:29;;;;;;;6.72;3.97;;;;;;;;;;5010709;28;20017;-68
2023/08/30 07:52:54;;;;;;;8.77;4.30;;;;;;;;;;5009810;28;20137;-67
2023/08/30 07:55:20;;;;;;;9.95;4.22;;;;;;;;;;5008403;28;20092;-67
2023/08/30 07:57:45;;;;;;;6.65;3.72;;;;;;;;;;5009782;28;20041;-68
2023/08/30 08:00:11;;;;;;;7.93;3.67;;;;;;;;;;5008442;28;20109;-67
2023/08/30 08:02:36;;;;;;;6.82;4.15;;;;;;;;;;5007661;28;20044;-68
2023/08/30 08:05:02;;;;;;;7.18;3.80;;;;;;;;;;5008735;28;20017;-66
2023/08/30 08:07:27;;;;;;;7.65;3.85;;;;;;;;;;5007322;28;20042;-68
2023/08/30 08:09:52;;;;;;;10.02;3.70;;;;;;;;;;5008529;28;20378;-68
2023/08/30 08:12:17;;;;;;;8.80;3.22;;;;;;;;;;5009803;28;20029;-65
2023/08/30 08:14:43;;;;;;;7.47;3.30;;;;;;;;;;5008748;28;20053;-69
2023/08/30 08:17:08;;;;;;;5.35;3.05;;;;;;;;;;5009171;28;20036;-67
2023/08/30 08:19:38;;;;;;;12.77;3.63;;;;;;;;;;5009298;28;20379;-68
2023/08/30 08:22:04;;;;;;;13.32;3.95;;;;;;;;;;5009431;28;20013;-68
2023/08/30 08:24:29;;;;;;;7.55;3.20;;;;;;;;;;5009643;28;20238;-68
2023/08/30 08:26:54;;;;;;;9.07;3.20;;;;;;;;;;5005544;28;20019;-64
2023/08/30 08:29:19;;;;;;;4.88;2.60;;;;;;;;;;5001715;28;20356;-68
2023/08/30 08:31:44;;;;;;;4.97;2.80;;;;;;;;;;5009358;28;20593;-67
2023/08/30 08:34:10;;;;;;;6.32;2.65;;;;;;;;;;5007996;28;20029;-68
2023/08/30 08:36:36;;;;;;;3.67;2.13;;;;;;;;;;5008974;28;20039;-68
2023/08/30 08:39:04;;;;;;;5.32;2.05;;;;;;;;;;5006166;28;20025;-68
2023/08/30 08:41:34;;;;;;;8.60;2.20;;;;;;;;;;5009370;28;20022;-67
2023/08/30 08:44:00;;;;;;;6.90;2.65;;;;;;;;;;5008392;28;20368;-65
2023/08/30 08:46:26;;;;;;;16.85;2.45;;;;;;;;;;5009594;28;20014;-68
2023/08/30 08:48:52;;;;;;;30.25;6.40;;;;;;;;;;5007815;28;20028;-66
2023/08/30 08:51:17;;;;;;;4.07;2.17;;;;;;;;;;5007895;28;20101;-67
2023/08/30 08:53:43;;;;;;;5.57;2.40;;;;;;;;;;5005566;28;20108;-67
2023/08/30 08:56:09;;;;;;;5.03;2.08;;;;;;;;;;5009080;28;20024;-66
2023/08/30 08:58:36;;;;;;;5.57;2.10;;;;;;;;;;5009154;28;20014;-68
2023/08/30 09:01:03;;;;;;;4.53;2.30;;;;;;;;;;5007252;28;20072;-66
2023/08/30 09:03:29;;;;;;;6.45;2.22;;;;;;;;;;5007060;28;20384;-67
2023/08/30 09:05:54;;;;;;;4.80;1.98;;;;;;;;;;5008121;28;20014;-66
2023/08/30 09:08:21;;;;;;;7.80;1.90;;;;;;;;;;5007422;28;20416;-67
2023/08/30 09:10:50;;;;;;;8.38;2.05;;;;;;;;;;5005976;28;20014;-67
2023/08/30 09:13:15;;;;;;;6.40;1.85;;;;;;;;;;5007875;28;20010;-68
2023/08/30 09:15:40;;;;;;;4.07;1.52;;;;;;;;;;5006328;28;20071;-68
2023/08/30 09:18:14;;;;;;;10.25;1.60;;;;;;;;;;5006101;28;20029;-67
2023/08/30 09:20:39;;;;;;;3.05;1.50;;;;;;;;;;4994941;28;20368;-65
2023/08/30 09:23:04;;;;;;;4.45;1.83;;;;;;;;;;5006806;28;20018;-66
2023/08/30 09:25:30;;;;;;;3.25;1.80;;;;;;;;;;5006643;28;20056;-64
2023/08/30 09:28:01;;;;;;;5.50;1.70;;;;;;;;;;5006620;28;20037;-68
2023/08/30 09:30:26;;;;;;;2.72;1.38;;;;;;;;;;5006312;28;20436;-67
2023/08/30 09:32:52;;;;;;;6.55;1.65;;;;;;;;;;5007916;28;20036;-69
2023/08/30 09:35:17;;;;;;;3.42;2.00;;;;;;;;;;5007428;28;20014;-67
2023/08/30 09:37:45;;;;;;;5.13;1.63;;;;;;;;;;5007228;28;20018;-68
2023/08/30 09:40:11;;;;;;;8.65;1.88;;;;;;;;;;5006827;28;20021;-66
2023/08/30 09:42:40;;;;;;;4.63;1.58;;;;;;;;;;5008456;28;20069;-68
2023/08/30 09:45:16;;;;;;;4.40;1.80;;;;;;;;;;5008304;28;20569;-67
2023/08/30 09:47:45;;;;;;;4.43;1.77;;;;;;;;;;5005914;28;20014;-67
2023/08/30 09:50:10;;;;;;;;;;;;;;;;;;5007458;28;20041;-69
2023/08/30 09:52:36;;;;;;;4.95;2.00;;;;;;;;;;5006704;28;19906;-67
2023/08/30 09:55:02;;;;;;;4.28;2.05;;;;;;;;;;5001234;28;20044;-65
2023/08/30 09:57:28;;;;;;;4.45;2.10;;;;;;;;;;5005799;28;20034;-70
2023/08/30 09:59:53;;;;;;;12.00;2.85;;;;;;;;;;5006124;28;20022;-69
2023/08/30 10:02:19;;;;;;;4.40;2.03;;;;;;;;;;5007019;28;20068;-68
2023/08/30 10:04:44;;;;;;;6.00;2.10;;;;;;;;;;5007506;28;20142;-65
2023/08/30 10:07:11;;;;;;;4.35;2.03;;;;;;;;;;5006663;28;20570;-68
2023/08/30 10:09:38;;;;;;;4.60;1.80;;;;;;;;;;5007337;28;20018;-68
2023/08/30 10:12:03;;;;;;;5.45;2.10;;;;;;;;;;5006577;28;20021;-70
2023/08/30 10:14:29;;;;;;;5.68;2.35;;;;;;;;;;5006057;28;20014;-69
2023/08/30 10:17:00;;;;;;;2.92;1.77;;;;;;;;;;5006241;28;20479;-66
2023/08/30 10:19:26;;;;;;;6.20;2.53;;;;;;;;;;5007409;28;20033;-68
2023/08/30 10:21:57;;;;;;;4.65;2.47;;;;;;;;;;5005921;28;20109;-69
2023/08/30 10:24:23;;;;;;;10.50;2.55;;;;;;;;;;5006849;28;20045;-66
2023/08/30 10:26:49;;;;;;;5.32;2.35;;;;;;;;;;5002523;28;20049;-70
2023/08/30 10:29:15;;;;;;;5.03;2.83;;;;;;;;;;4998324;28;20412;-69
2023/08/30 10:31:41;;;;;;;4.15;2.50;;;;;;;;;;5012265;28;20034;-68
2023/08/30 10:34:19;;;;;;;6.35;2.80;;;;;;;;;;5010794;28;20045;-64
2023/08/30 10:36:44;;;;;;;4.68;2.60;;;;;;;;;;5005551;28;20026;-64
2023/08/30 10:39:14;;;;;;;5.13;2.55;;;;;;;;;;5003092;28;20079;-68
2023/08/30 10:41:54;;;;;;;7.45;2.83;;;;;;;;;;5010882;28;20010;-68
2023/08/30 10:44:21;;;;;;;6.93;2.80;;;;;;;;;;5009705;28;20079;-67
2023/08/30 10:46:51;;;;;;;7.10;2.90;;;;;;;;;;5012339;28;20040;-66
2023/08/30 10:49:18;;;;;;;6.03;2.80;;;;;;;;;;5010314;28;20036;-67
2023/08/30 10:51:47;;;;;;;7.22;2.92;;;;;;;;;;5010933;28;20029;-69
2023/08/30 10:54:15;;;;;;;6.18;3.00;;;;;;;;;;5009660;28;20018;-68
2023/08/30 10:56:40;;;;;;;;;;;;;;;;;;5010530;28;20498;-68
2023/08/30 10:59:15;;;;;;;6.25;3.10;;;;;;;;;;5010422;28;20359;-66
2023/08/30 11:01:40;;;;;;;6.63;3.50;;;;;;;;;;5011025;28;20306;-63
2023/08/30 11:04:06;;;;;;;4.28;2.25;;;;;;;;;;5009054;28;20010;-68
2023/08/30 11:06:31;;;;;;;4.97;2.67;;;;;;;;;;5011405;28;20122;-67
2023/08/30 11:08:56;;;;;;;5.22;2.50;;;;;;;;;;5011794;28;20018;-70
2023/08/30 11:11:22;;;;;;;3.65;1.77;;;;;;;;;;5009773;28;20022;-67
2023/08/30 11:13:47;;;;;;;3.72;1.83;;;;;;;;;;5010463;28;20018;-68
2023/08/30 11:16:12;;;;;;;6.43;1.77;;;;;;;;;;5009573;28;20479;-71
2023/08/30 11:18:39;;;;;;;3.80;1.70;;;;;;;;;;5010222;28;20066;-68
2023/08/30 11:21:05;;;;;;;6.90;2.05;;;;;;;;;;5006075;28;20098;-69
2023/08/30 11:23:30;;;;;;;5.05;1.70;;;;;;;;;;5010121;28;20052;-65
2023/08/30 11:25:55;;;;;;;5.95;1.48;;;;;;;;;;5009798;28;20049;-69
2023/08/30 11:28:21;;;;;;;3.88;1.40;;;;;;;;;;5009314;28;20053;-68
2023/08/30 11:30:46;;;;;;;4.88;1.80;;;;;;;;;;5004019;28;20018;-68
2023/08/30 11:33:12;;;;;;;4.60;1.75;;;;;;;;;;5004270;28;20119;-66
2023/08/30 11:35:38;;;;;;;3.50;1.70;;;;;;;;;;5009736;28;20014;-68
2023/08/30 11:38:03;;;;;;;6.22;1.90;;;;;;;;;;5008135;28;20021;-70
2023/08/30 11:40:29;;;;;;;4.53;1.80;;;;;;;;;;4998383;28;20030;-67
2023/08/30 11:42:54;;;;;;;8.88;1.90;;;;;;;;;;5002427;28;20037;-69
2023/08/30 11:45:19;;;;;;;5.03;1.95;;;;;;;;;;5001962;28;20025;-66
2023/08/30 11:47:45;;;;;;;4.57;1.70;;;;;;;;;;5002244;28;20091;-68
2023/08/30 11:50:12;;;;;;;7.25;1.83;;;;;;;;;;5004065;28;20029;-69
2023/08/30 11:52:38;;;;;;;9.13;2.15;;;;;;;;;;5000781;28;20033;-69
2023/08/30 11:55:04;;;;;;;6.13;1.60;;;;;;;;;;4999408;28;20033;-68
2023/08/30 11:57:32;;;;;;;8.57;1.63;;;;;;;;;;5002892;28;20030;-67
2023/08/30 12:00:06;;;;;;;7.80;2.08;;;;;;;;;;5003439;28;20470;-67
2023/08/30 12:02:31;;;;;;;7.95;1.80;;;;;;;;;;5001937;28;20141;-69
2023/08/30 12:04:59;;;;;;;3.15;1.70;;;;;;;;;;5001610;28;20133;-68
2023/08/30 12:07:25;;;;;;;5.82;1.85;;;;;;;;;;4984930;28;20121;-68
2023/08/30 12:09:51;;;;;;;4.20;1.40;;;;;;;;;;5003043;28;20117;-68
2023/08/30 12:12:16;;;;;;;3.38;1.40;;;;;;;;;;5002596;28;20045;-68
2023/08/30 12:14:42;;;;;;;3.05;1.45;;;;;;;;;;5002419;28;20021;-69
2023/08/30 12:17:08;;;;;;;2.72;1.60;;;;;;;;;;5000825;28;20036;-70
2023/08/30 12:19:34;;;;;;;3.60;1.40;;;;;;;;;;5001376;28;21419;-69
2023/08/30 12:22:05;;;;;;;1.92;1.20;;;;;;;;;;5002065;28;20122;-65
2023/08/30 12:24:40;;;;;;;5.55;1.38;;;;;;;;;;5001335;28;20022;-64
2023/08/30 12:27:06;;;;;;;3.95;1.63;;;;;;;;;;5001413;28;20033;-64
2023/08/30 12:29:31;;;;;;;5.70;1.65;;;;;;;;;;5002150;28;20080;-65
2023/08/30 12:31:56;;;;;;;4.70;1.30;;;;;;;;;;4999878;28;20120;-67
2023/08/30 12:34:22;;;;;;;4.85;1.40;;;;;;;;;;5000748;28;20099;-66
2023/08/30 12:36:47;;;;;;;3.97;1.50;;;;;;;;;;5003307;28;20577;-69
2023/08/30 12:39:13;;;;;;;2.33;1.25;;;;;;;;;;5001246;28;20026;-68
2023/08/30 12:41:39;;;;;;;3.38;1.50;;;;;;;;;;5005386;28;20053;-66
2023/08/30 12:44:04;;;;;;;3.53;1.60;;;;;;;;;;5030854;23;20061;-68
2023/08/30 12:46:29;;;;;;;3.80;1.80;;;;;;;;;;5029653;28;20013;-69
2023/08/30 12:48:55;;;;;;;4.30;1.60;;;;;;;;;;5029950;28;20053;-67
2023/08/30 12:51:20;;;;;;;3.60;1.60;;;;;;;;;;5031179;28;20477;-66
2023/08/30 12:53:45;;;;;;;3.45;1.65;;;;;;;;;;5028952;28;20386;-69
2023/08/30 12:56:10;;;;;;;2.92;1.17;;;;;;;;;;5022141;28;20477;-68
2023/08/30 12:58:36;;;;;;;2.03;1.20;;;;;;;;;;5029189;28;20109;-69
2023/08/30 13:01:01;;;;;;;2.92;1.20;;;;;;;;;;5030415;28;20013;-73
2023/08/30 13:03:26;;;;;;;2.20;0.95;;;;;;;;;;5028845;28;20414;-68
2023/08/30 13:05:51;;;;;;;4.90;1.43;;;;;;;;;;5027978;28;20021;-69
2023/08/30 13:08:17;;;;;;;2.30;1.23;;;;;;;;;;5029955;28;20239;-67
2023/08/30 13:10:43;;;;;;;5.88;1.73;;;;;;;;;;5030021;28;20013;-68
2023/08/30 13:13:08;;;;;;;9.00;1.60;;;;;;;;;;5028071;28;20490;-67
2023/08/30 13:15:35;;;;;;;5.60;1.10;;;;;;;;;;5029191;28;20013;-68
2023/08/30 13:18:00;;;;;;;3.88;1.05;;;;;;;;;;5028820;28;20258;-67
2023/08/30 13:20:25;;;;;;;3.92;1.23;;;;;;;;;;5030597;28;20025;-67
2023/08/30 13:22:51;;;;;;;4.82;0.88;;;;;;;;;;5024946;28;20010;-68
2023/08/30 13:25:16;;;;;;;3.42;1.17;;;;;;;;;;5028572;28;20040;-68
2023/08/30 13:27:41;;;;;;;3.15;1.25;;;;;;;;;;5029186;28;20371;-69
2023/08/30 13:30:07;;;;;;;2.60;1.17;;;;;;;;;;5029351;28;20037;-68
2023/08/30 13:32:33;;;;;;;4.22;1.58;;;;;;;;;;5028559;28;20098;-66
2023/08/30 13:34:59;;;;;;;2.30;1.13;;;;;;;;;;5044784;28;20052;-68
2023/08/30 13:37:24;;;;;;;4.10;1.15;;;;;;;;;;5029883;28;20092;-68
2023/08/30 13:39:50;;;;;;;2.67;0.90;;;;;;;;;;5026455;28;20013;-68
2023/08/30 13:42:15;;;;;;;2.33;1.02;;;;;;;;;;5027699;28;20443;-68
2023/08/30 13:44:43;;;;;;;4.65;1.02;;;;;;;;;;5028027;28;20408;-69
2023/08/30 13:47:08;;;;;;;3.87;1.50;;;;;;;;;;5024345;28;20088;-68
2023/08/30 13:49:35;;;;;;;2.90;0.98;;;;;;;;;;5023642;28;20101;-67
2023/08/30 13:52:00;;;;;;;1.55;0.90;;;;;;;;;;5029238;28;20096;-68
2023/08/30 13:54:25;;;;;;;2.23;1.07;;;;;;;;;;5023718;28;20507;-69
2023/08/30 13:56:51;;;;;;;4.88;1.40;;;;;;;;;;5018179;28;20267;-71
2023/08/30 13:59:16;;;;;;;5.00;1.70;;;;;;;;;;5021990;28;20032;-69
2023/08/30 14:01:42;;;;;;;3.35;1.13;;;;;;;;;;5025023;28;20049;-69
2023/08/30 14:04:07;;;;;;;2.08;1.08;;;;;;;;;;5018594;28;20096;-69
2023/08/30 14:06:32;;;;;;;2.45;1.10;;;;;;;;;;5021921;28;20378;-65
2023/08/30 14:08:58;;;;;;;2.75;1.00;;;;;;;;;;5020516;28;20029;-69
2023/08/30 14:11:23;;;;;;;2.67;0.95;;;;;;;;;;5028191;28;20026;-70
2023/08/30 14:13:48;;;;;;;3.22;1.20;;;;;;;;;;5017954;28;20582;-68
2023/08/30 14:16:13;;;;;;;3.65;1.33;;;;;;;;;;5028684;28;20452;-68
2023/08/30 14:18:39;;;;;;;1.33;0.85;;;;;;;;;;5024845;28;20018;-69
2023/08/30 14:21:05;;;;;;;3.03;1.10;;;;;;;;;;5028501;28;20022;-71
2023/08/30 14:23:30;;;;;;;3.22;1.52;;;;;;;;;;5028104;28;20017;-67
2023/08/30 14:26:08;;;;;;;2.65;1.08;;;;;;;;;;5026860;28;20018;-69
2023/08/30 14:28:34;;;;;;;2.83;1.30;;;;;;;;;;5025131;28;20037;-68
2023/08/30 14:30:59;;;;;;;2.88;1.23;;;;;;;;;;5025280;28;20025;-64
2023/08/30 14:33:24;;;;;;;1.65;0.98;;;;;;;;;;5027440;28;20593;-67